Time;durP1;ratioP1;P1;durP2;ratioP2;P2;SDS_P1;SDS_P2;PMS_P1;PMS_P2;Temp;Humidity;BMP_temperature;BMP_pressure;BME280_temperature;BME280_humidity;BME280_pressure;Samples;Min_cycle;Max_cycle;Signal;HPM_P1;HPM_P2
2023/12/05 00:00:13;;;;;;;;;;;;;;;;;;5023981;28;19928;-70
2023/12/05 00:02:39;;;;;;;;;;;;;;;;;;5049433;28;19924;-70
2023/12/05 00:05:05;;;;;;;;;;;;;;;;;;5028735;28;20370;-69
2023/12/05 00:07:31;;;;;;;;;;;;;;;;;;5031016;28;19929;-70
2023/12/05 00:09:58;;;;;;;;;;;;;;;;;;5035343;28;19931;-70
2023/12/05 00:12:24;;;;;;;;;;;;;;;;;;5031974;28;19928;-70
2023/12/05 00:14:49;;;;;;;;;;;;;;;;;;5026497;28;19925;-70
2023/12/05 00:17:15;;;;;;;;;;;;;;;;;;5042997;28;20294;-70
2023/12/05 00:19:41;;;;;;;;;;;;;;;;;;5046296;28;20080;-70
2023/12/05 00:22:07;;;;;;;;;;;;;;;;;;5064271;28;19975;-70
2023/12/05 00:24:33;;;;;;;;;;;;;;;;;;5024309;28;20861;-70
2023/12/05 00:26:59;;;;;;;;;;;;;;;;;;5029242;28;19925;-71
2023/12/05 00:29:25;;;;;;;;;;;;;;;;;;5027311;28;19921;-70
2023/12/05 00:31:52;;;;;;;;;;;;;;;;;;5029632;28;19921;-70
2023/12/05 00:34:18;;;;;;;;;;;;;;;;;;5014139;28;19931;-70
2023/12/05 00:36:43;;;;;;;;;;;;;;;;;;5033565;28;19921;-70
2023/12/05 00:39:09;;;;;;;;;;;;;;;;;;5030195;28;20031;-69
2023/12/05 00:41:35;;;;;;;;;;;;;;;;;;5031537;28;20012;-69
2023/12/05 00:44:01;;;;;;;;;;;;;;;;;;5061589;28;19925;-69
2023/12/05 00:46:27;;;;;;;;;;;;;;;;;;5034545;28;19983;-70
2023/12/05 00:48:53;;;;;;;;;;;;;;;;;;5034204;28;20011;-71
2023/12/05 00:51:19;;;;;;;;;;;;;;;;;;5016552;28;20020;-70
2023/12/05 00:53:45;;;;;;;;;;;;;;;;;;5046935;28;20282;-70
2023/12/05 00:56:11;;;;;;;;;;;;;;;;;;5038281;28;20015;-70
2023/12/05 00:58:37;;;;;;;;;;;;;;;;;;5034339;28;19944;-70
2023/12/05 01:01:03;;;;;;;;;;;;;;;;;;5034339;28;19951;-70
2023/12/05 01:03:29;;;;;;;;;;;;;;;;;;5028796;28;20590;-70
2023/12/05 01:05:55;;;;;;;;;;;;;;;;;;5035609;28;20012;-70
2023/12/05 01:08:21;;;;;;;;;;;;;;;;;;5032913;28;19944;-71
2023/12/05 01:10:47;;;;;;;;;;;;;;;;;;5034382;28;19925;-70
2023/12/05 01:13:13;;;;;;;;;;;;;;;;;;5044097;28;19925;-70
2023/12/05 01:15:38;;;;;;;;;;;;;;;;;;5033585;28;20302;-70
2023/12/05 01:18:04;;;;;;;;;;;;;;;;;;5038983;28;19928;-70
2023/12/05 01:20:30;;;;;;;;;;;;;;;;;;5042570;28;20045;-70
2023/12/05 01:22:57;;;;;;;;;;;;;;;;;;5029125;28;19928;-70
2023/12/05 01:25:22;;;;;;;;;;;;;;;;;;5028500;28;19925;-70
2023/12/05 01:27:48;;;;;;;;;;;;;;;;;;5037972;28;20625;-69
2023/12/05 01:30:14;;;;;;;;;;;;;;;;;;5025852;28;19925;-69
2023/12/05 01:32:40;;;;;;;;;;;;;;;;;;5032820;28;19922;-69
2023/12/05 01:35:06;;;;;;;;;;;;;;;;;;5026975;28;19921;-70
2023/12/05 01:37:32;;;;;;;;;;;;;;;;;;5029086;28;19925;-69
2023/12/05 01:39:58;;;;;;;;;;;;;;;;;;5023812;28;19936;-69
2023/12/05 01:42:24;;;;;;;;;;;;;;;;;;5028759;28;19921;-69
2023/12/05 01:44:50;;;;;;;;;;;;;;;;;;5038500;28;19921;-68
2023/12/05 01:47:16;;;;;;;;;;;;;;;;;;5034793;28;20046;-70
2023/12/05 01:49:42;;;;;;;;;;;;;;;;;;5031848;28;19936;-70
2023/12/05 01:52:08;;;;;;;;;;;;;;;;;;5021303;28;19921;-69
2023/12/05 01:54:34;;;;;;;;;;;;;;;;;;5027955;28;19921;-69
2023/12/05 01:56:59;;;;;;;;;;;;;;;;;;5028959;28;20011;-69
2023/12/05 01:59:25;;;;;;;;;;;;;;;;;;5034415;28;19929;-69
2023/12/05 02:01:51;;;;;;;;;;;;;;;;;;5022495;28;20498;-68
2023/12/05 02:04:17;;;;;;;;;;;;;;;;;;5029675;28;20015;-69
2023/12/05 02:06:43;;;;;;;;;;;;;;;;;;5052140;28;19924;-68
2023/12/05 02:09:10;;;;;;;;;;;;;;;;;;5035733;28;20046;-69
2023/12/05 02:11:36;;;;;;;;;;;;;;;;;;5024639;28;19921;-69
2023/12/05 02:14:04;;;;;;;;;;;;;;;;;;5025589;28;19930;-69
2023/12/05 02:16:30;;;;;;;;;;;;;;;;;;5047313;28;19956;-69
2023/12/05 02:18:57;;;;;;;;;;;;;;;;;;5043221;28;20367;-69
2023/12/05 02:21:23;;;;;;;;;;;;;;;;;;5019923;28;19936;-69
2023/12/05 02:23:49;;;;;;;;;;;;;;;;;;5050306;28;19989;-68
2023/12/05 02:26:16;;;;;;;;;;;;;;;;;;5043697;28;20409;-68
2023/12/05 02:28:42;;;;;;;;;;;;;;;;;;5028070;28;19932;-67
2023/12/05 02:31:08;;;;;;;;;;;;;;;;;;5068888;28;19924;-68
2023/12/05 02:33:33;;;;;;;;;;;;;;;;;;5036512;28;19921;-68
2023/12/05 02:35:59;;;;;;;;;;;;;;;;;;5027275;28;19976;-69
2023/12/05 02:38:25;;;;;;;;;;;;;;;;;;5040126;28;19932;-69
2023/12/05 02:40:51;;;;;;;;;;;;;;;;;;5032963;28;20334;-69
2023/12/05 02:43:17;;;;;;;;;;;;;;;;;;5048229;28;19921;-69
2023/12/05 02:45:43;;;;;;;;;;;;;;;;;;5034978;28;19921;-68
2023/12/05 02:48:09;;;;;;;;;;;;;;;;;;5055659;28;19975;-68
2023/12/05 02:50:35;;;;;;;;;;;;;;;;;;5031223;28;20294;-68
2023/12/05 02:53:01;;;;;;;;;;;;;;;;;;5035143;28;19921;-69
2023/12/05 02:55:27;;;;;;;;;;;;;;;;;;5032898;28;19924;-67
2023/12/05 02:57:52;;;;;;;;;;;;;;;;;;5033575;28;19928;-68
2023/12/05 03:00:19;;;;;;;;;;;;;;;;;;5042810;28;20294;-68
2023/12/05 03:02:45;;;;;;;;;;;;;;;;;;5034556;28;20036;-69
2023/12/05 03:05:11;;;;;;;;;;;;;;;;;;5032559;28;20663;-69
2023/12/05 03:07:37;;;;;;;;;;;;;;;;;;5028224;28;19933;-68
2023/12/05 03:10:03;;;;;;;;;;;;;;;;;;5033042;28;20063;-68
2023/12/05 03:12:31;;;;;;;;;;;;;;;;;;5028986;28;19922;-68
2023/12/05 03:14:57;;;;;;;;;;;;;;;;;;5048343;28;19967;-68
2023/12/05 03:17:23;;;;;;;;;;;;;;;;;;5053423;28;19924;-68
2023/12/05 03:19:49;;;;;;;;;;;;;;;;;;5030579;28;19929;-68
2023/12/05 03:22:15;;;;;;;;;;;;;;;;;;5040540;28;19920;-68
2023/12/05 03:24:41;;;;;;;;;;;;;;;;;;5024520;28;19928;-68
2023/12/05 03:27:07;;;;;;;;;;;;;;;;;;5033427;28;20592;-68
2023/12/05 03:29:33;;;;;;;;;;;;;;;;;;5024851;28;19929;-68
2023/12/05 03:31:59;;;;;;;;;;;;;;;;;;5034953;28;19926;-68
2023/12/05 03:34:25;;;;;;;;;;;;;;;;;;5026905;28;19948;-68
2023/12/05 03:36:51;;;;;;;;;;;;;;;;;;5027565;28;20358;-68
2023/12/05 03:39:17;;;;;;;;;;;;;;;;;;5031874;28;19920;-68
2023/12/05 03:41:44;;;;;;;;;;;;;;;;;;5035215;28;20046;-68
2023/12/05 03:44:10;;;;;;;;;;;;;;;;;;5036991;28;20608;-68
2023/12/05 03:46:36;;;;;;;;;;;;;;;;;;5056390;28;20020;-68
2023/12/05 03:49:02;;;;;;;;;;;;;;;;;;5049958;28;19999;-68
2023/12/05 03:51:28;;;;;;;;;;;;;;;;;;5052435;28;19925;-68
2023/12/05 03:53:54;;;;;;;;;;;;;;;;;;5053006;28;19925;-68
2023/12/05 03:56:20;;;;;;;;;;;;;;;;;;5046984;28;19994;-68
2023/12/05 03:58:46;;;;;;;;;;;;;;;;;;5020018;28;20256;-69
2023/12/05 04:01:12;;;;;;;;;;;;;;;;;;5063243;28;20134;-69
2023/12/05 04:03:38;;;;;;;;;;;;;;;;;;5035836;28;19927;-69
2023/12/05 04:06:04;;;;;;;;;;;;;;;;;;5039231;28;19921;-69
2023/12/05 04:08:30;;;;;;;;;;;;;;;;;;5050832;28;19925;-69
2023/12/05 04:10:55;;;;;;;;;;;;;;;;;;5029604;28;19921;-69
2023/12/05 04:13:21;;;;;;;;;;;;;;;;;;5047405;28;19921;-69
2023/12/05 04:15:47;;;;;;;;;;;;;;;;;;5023926;28;19921;-68
2023/12/05 04:18:13;;;;;;;;;;;;;;;;;;5031849;28;19932;-69
2023/12/05 04:20:39;;;;;;;;;;;;;;;;;;5037688;28;19932;-68
2023/12/05 04:23:05;;;;;;;;;;;;;;;;;;5012577;28;19978;-69
2023/12/05 04:25:31;;;;;;;;;;;;;;;;;;5036238;28;19999;-68
2023/12/05 04:27:57;;;;;;;;;;;;;;;;;;5037403;28;19944;-69
2023/12/05 04:30:23;;;;;;;;;;;;;;;;;;5031842;28;20686;-68
2023/12/05 04:32:49;;;;;;;;;;;;;;;;;;5033491;28;20059;-69
2023/12/05 04:35:15;;;;;;;;;;;;;;;;;;5033772;28;20016;-69
2023/12/05 04:37:41;;;;;;;;;;;;;;;;;;5037036;28;19932;-69
2023/12/05 04:40:08;;;;;;;;;;;;;;;;;;5031283;28;19929;-68
2023/12/05 04:42:34;;;;;;;;;;;;;;;;;;5043684;28;20010;-68
2023/12/05 04:45:00;;;;;;;;;;;;;;;;;;5026921;28;19959;-68
2023/12/05 04:47:25;;;;;;;;;;;;;;;;;;5034876;28;19971;-68
2023/12/05 04:49:51;;;;;;;;;;;;;;;;;;5040400;28;20405;-68
2023/12/05 04:52:17;;;;;;;;;;;;;;;;;;5040082;28;19925;-69
2023/12/05 04:54:43;;;;;;;;;;;;;;;;;;5049060;28;19925;-68
2023/12/05 04:57:09;;;;;;;;;;;;;;;;;;5036585;28;20280;-69
2023/12/05 04:59:35;;;;;;;;;;;;;;;;;;5028873;28;19933;-69
2023/12/05 05:02:01;;;;;;;;;;;;;;;;;;5021185;28;19932;-68
2023/12/05 05:04:27;;;;;;;;;;;;;;;;;;5015697;28;19925;-68
2023/12/05 05:06:53;;;;;;;;;;;;;;;;;;5039151;28;20274;-68
2023/12/05 05:09:19;;;;;;;;;;;;;;;;;;5031818;28;19921;-69
2023/12/05 05:11:45;;;;;;;;;;;;;;;;;;5024069;28;19925;-68
2023/12/05 05:14:11;;;;;;;;;;;;;;;;;;5036757;28;19925;-68
2023/12/05 05:16:37;;;;;;;;;;;;;;;;;;5026196;28;19921;-69
2023/12/05 05:19:03;;;;;;;;;;;;;;;;;;5035993;28;19925;-68
2023/12/05 05:21:29;;;;;;;;;;;;;;;;;;5030277;28;20256;-69
2023/12/05 05:23:55;;;;;;;;;;;;;;;;;;5026212;28;19975;-68
2023/12/05 05:26:21;;;;;;;;;;;;;;;;;;5035043;28;20355;-68
2023/12/05 05:28:47;;;;;;;;;;;;;;;;;;5032168;28;19924;-68
2023/12/05 05:31:13;;;;;;;;;;;;;;;;;;5021802;28;19929;-69
2023/12/05 05:33:38;;;;;;;;;;;;;;;;;;5030454;28;19956;-69
2023/12/05 05:36:04;;;;;;;;;;;;;;;;;;5036002;28;20010;-69
2023/12/05 05:38:30;;;;;;;;;;;;;;;;;;5027337;28;19924;-69
2023/12/05 05:40:56;;;;;;;;;;;;;;;;;;5025949;28;19984;-69
2023/12/05 05:43:22;;;;;;;;;;;;;;;;;;5032245;28;20357;-69
2023/12/05 05:45:48;;;;;;;;;;;;;;;;;;5042863;28;19921;-69
2023/12/05 05:48:14;;;;;;;;;;;;;;;;;;5028132;28;19925;-69
2023/12/05 05:50:40;;;;;;;;;;;;;;;;;;5030064;28;19929;-69
2023/12/05 05:53:06;;;;;;;;;;;;;;;;;;5028951;28;19979;-69
2023/12/05 05:55:32;;;;;;;;;;;;;;;;;;5028708;28;19929;-69
2023/12/05 05:57:58;;;;;;;;;;;;;;;;;;5023566;28;19925;-69
2023/12/05 06:00:24;;;;;;;;;;;;;;;;;;5046132;28;19932;-68
2023/12/05 06:02:50;;;;;;;;;;;;;;;;;;5036295;28;19928;-68
2023/12/05 06:05:16;;;;;;;;;;;;;;;;;;5033501;28;19925;-69
2023/12/05 06:07:42;;;;;;;;;;;;;;;;;;5040603;28;19932;-68
2023/12/05 06:10:08;;;;;;;;;;;;;;;;;;5002777;28;19972;-69
2023/12/05 06:12:34;;;;;;;;;;;;;;;;;;5030305;28;19928;-68
2023/12/05 06:15:00;;;;;;;;;;;;;;;;;;5026659;28;19925;-68
2023/12/05 06:17:26;;;;;;;;;;;;;;;;;;5039793;28;19921;-69
2023/12/05 06:19:53;;;;;;;;;;;;;;;;;;5045450;28;19987;-68
2023/12/05 06:22:19;;;;;;;;;;;;;;;;;;5023210;28;20275;-69
2023/12/05 06:24:45;;;;;;;;;;;;;;;;;;5036095;28;19921;-69
2023/12/05 06:27:11;;;;;;;;;;;;;;;;;;5033404;28;19996;-69
2023/12/05 06:29:37;;;;;;;;;;;;;;;;;;5034993;28;19933;-69
2023/12/05 06:32:03;;;;;;;;;;;;;;;;;;5032185;28;19925;-69
2023/12/05 06:34:29;;;;;;;;;;;;;;;;;;5053685;28;19922;-69
2023/12/05 06:36:55;;;;;;;;;;;;;;;;;;5016808;28;19925;-69
2023/12/05 06:39:21;;;;;;;;;;;;;;;;;;5024392;28;19929;-69
2023/12/05 06:41:47;;;;;;;;;;;;;;;;;;5025975;28;19927;-69
2023/12/05 06:44:13;;;;;;;;;;;;;;;;;;5025391;28;19925;-69
2023/12/05 06:46:39;;;;;;;;;;;;;;;;;;5026070;28;19921;-69
2023/12/05 06:49:05;;;;;;;;;;;;;;;;;;5025371;28;20364;-69
2023/12/05 06:51:31;;;;;;;;;;;;;;;;;;5027584;28;19921;-69
2023/12/05 06:53:57;;;;;;;;;;;;;;;;;;5039729;28;20362;-69
2023/12/05 06:56:22;;;;;;;;;;;;;;;;;;5021394;28;19937;-69
2023/12/05 06:58:48;;;;;;;;;;;;;;;;;;5013147;28;19922;-69
2023/12/05 07:01:14;;;;;;;;;;;;;;;;;;5055031;28;20012;-69
2023/12/05 07:03:40;;;;;;;;;;;;;;;;;;5024120;28;20572;-69
2023/12/05 07:06:06;;;;;;;;;;;;;;;;;;5037166;28;20012;-69
2023/12/05 07:08:32;;;;;;;;;;;;;;;;;;5030782;28;19932;-69
2023/12/05 07:10:58;;;;;;;;;;;;;;;;;;5025413;28;20286;-69
2023/12/05 07:13:24;;;;;;;;;;;;;;;;;;5026114;28;20629;-69
2023/12/05 07:15:50;;;;;;;;;;;;;;;;;;5031984;28;19936;-69
2023/12/05 07:18:16;;;;;;;;;;;;;;;;;;5033129;28;19921;-69
2023/12/05 07:20:42;;;;;;;;;;;;;;;;;;5037214;28;20341;-69
2023/12/05 07:23:08;;;;;;;;;;;;;;;;;;5034897;28;19928;-69
2023/12/05 07:25:33;;;;;;;;;;;;;;;;;;5043415;28;20016;-68
2023/12/05 07:27:59;;;;;;;;;;;;;;;;;;5025804;28;19921;-69
2023/12/05 07:30:25;;;;;;;;;;;;;;;;;;5023345;28;20032;-68
2023/12/05 07:32:51;;;;;;;;;;;;;;;;;;5023902;28;19978;-69
2023/12/05 07:35:17;;;;;;;;;;;;;;;;;;5064746;28;19925;-69
2023/12/05 07:37:43;;;;;;;;;;;;;;;;;;5031596;28;19925;-69
2023/12/05 07:40:09;;;;;;;;;;;;;;;;;;5031540;28;20244;-69
2023/12/05 07:42:35;;;;;;;;;;;;;;;;;;5032474;28;19936;-69
2023/12/05 07:45:01;;;;;;;;;;;;;;;;;;5024934;28;19932;-69
2023/12/05 07:47:27;;;;;;;;;;;;;;;;;;5054774;28;20004;-69
2023/12/05 07:49:53;;;;;;;;;;;;;;;;;;5024830;28;20044;-69
2023/12/05 07:52:19;;;;;;;;;;;;;;;;;;5049328;28;19924;-69
2023/12/05 07:54:45;;;;;;;;;;;;;;;;;;5031155;28;19924;-70
2023/12/05 07:57:11;;;;;;;;;;;;;;;;;;5022392;28;20001;-69
2023/12/05 07:59:37;;;;;;;;;;;;;;;;;;5059105;28;19925;-68
2023/12/05 08:02:03;;;;;;;;;;;;;;;;;;5021347;28;20036;-69
2023/12/05 08:04:29;;;;;;;;;;;;;;;;;;5028796;28;20407;-69
2023/12/05 08:06:55;;;;;;;;;;;;;;;;;;5049554;28;20012;-68
2023/12/05 08:09:21;;;;;;;;;;;;;;;;;;5024713;28;20016;-69
2023/12/05 08:11:47;;;;;;;;;;;;;;;;;;5027475;28;19925;-69
2023/12/05 08:14:13;;;;;;;;;;;;;;;;;;5032021;28;20351;-69
2023/12/05 08:16:40;;;;;;;;;;;;;;;;;;5023014;28;20271;-70
2023/12/05 08:19:05;;;;;;;;;;;;;;;;;;5045019;28;20015;-70
2023/12/05 08:21:31;;;;;;;;;;;;;;;;;;5029221;28;20353;-70
2023/12/05 08:23:57;;;;;;;;;;;;;;;;;;5009741;28;19967;-69
2023/12/05 08:26:23;;;;;;;;;;;;;;;;;;5021765;28;19930;-69
2023/12/05 08:28:49;;;;;;;;;;;;;;;;;;5023563;28;19932;-69
2023/12/05 08:31:15;;;;;;;;;;;;;;;;;;5032120;28;20335;-70
2023/12/05 08:33:41;;;;;;;;;;;;;;;;;;5043634;28;20418;-70
2023/12/05 08:36:07;;;;;;;;;;;;;;;;;;5033505;28;20016;-70
2023/12/05 08:38:33;;;;;;;;;;;;;;;;;;5038491;28;20413;-69
2023/12/05 08:40:59;;;;;;;;;;;;;;;;;;5040495;28;19925;-70
2023/12/05 08:43:25;;;;;;;;;;;;;;;;;;5031527;28;19961;-70
2023/12/05 08:45:51;;;;;;;;;;;;;;;;;;5025837;28;19957;-70
2023/12/05 08:48:17;;;;;;;;;;;;;;;;;;5035717;28;19920;-69
2023/12/05 08:50:43;;;;;;;;;;;;;;;;;;5035408;28;19925;-69
2023/12/05 08:53:09;;;;;;;;;;;;;;;;;;5032685;28;19927;-70
2023/12/05 08:55:35;;;;;;;;;;;;;;;;;;5041263;28;19933;-70
2023/12/05 08:58:00;;;;;;;;;;;;;;;;;;5037551;28;19925;-70
2023/12/05 09:00:26;;;;;;;;;;;;;;;;;;5041402;28;19933;-69
2023/12/05 09:02:52;;;;;;;;;;;;;;;;;;5024915;28;19932;-67
2023/12/05 09:05:18;;;;;;;;;;;;;;;;;;5035642;28;20019;-68
2023/12/05 09:07:45;;;;;;;;;;;;;;;;;;5034644;28;19932;-67
2023/12/05 09:10:11;;;;;;;;;;;;;;;;;;5052712;28;19922;-67
2023/12/05 09:12:37;;;;;;;;;;;;;;;;;;5020997;28;19925;-67
2023/12/05 09:15:03;;;;;;;;;;;;;;;;;;5029157;28;19932;-67
2023/12/05 09:17:29;;;;;;;;;;;;;;;;;;5026906;28;19928;-67
2023/12/05 09:19:55;;;;;;;;;;;;;;;;;;5045750;28;19929;-67
2023/12/05 09:22:21;;;;;;;;;;;;;;;;;;5046454;28;20507;-68
2023/12/05 09:24:46;;;;;;;;;;;;;;;;;;5029242;28;19967;-68
2023/12/05 09:27:12;;;;;;;;;;;;;;;;;;5032011;28;19976;-67
2023/12/05 09:29:38;;;;;;;;;;;;;;;;;;5032371;28;19928;-68
2023/12/05 09:32:05;;;;;;;;;;;;;;;;;;5029628;28;19925;-69
2023/12/05 09:34:30;;;;;;;;;;;;;;;;;;5035907;28;19928;-67
2023/12/05 09:36:56;;;;;;;;;;;;;;;;;;5051184;28;20462;-68
2023/12/05 09:39:23;;;;;;;;;;;;;;;;;;5031950;28;19935;-68
2023/12/05 09:41:49;;;;;;;;;;;;;;;;;;5028074;28;19927;-67
2023/12/05 09:44:16;;;;;;;;;;;;;;;;;;5034768;28;20008;-67
2023/12/05 09:46:42;;;;;;;;;;;;;;;;;;5030874;28;19921;-68
2023/12/05 09:49:08;;;;;;;;;;;;;;;;;;5036964;28;20007;-68
2023/12/05 09:51:34;;;;;;;;;;;;;;;;;;5027784;28;20020;-68
2023/12/05 09:54:00;;;;;;;;;;;;;;;;;;5056601;28;20050;-68
2023/12/05 09:56:26;;;;;;;;;;;;;;;;;;5101682;22;20015;-67
2023/12/05 09:58:52;;;;;;;;;;;;;;;;;;5087129;28;19919;-66
2023/12/05 10:01:19;;;;;;;;;;;;;;;;;;5051133;28;19972;-66
2023/12/05 10:03:47;;;;;;;;;;;;;;;;;;5073694;28;20196;-66
2023/12/05 10:06:13;;;;;;;;;;;;;;;;;;5068246;28;20385;-66
2023/12/05 10:08:39;;;;;;;;;;;;;;;;;;5055909;28;19946;-66
2023/12/05 10:11:05;;;;;;;;;;;;;;;;;;5072834;28;19923;-66
2023/12/05 10:13:31;;;;;;;;;;;;;;;;;;5072314;28;19942;-68
2023/12/05 10:15:58;;;;;;;;;;;;;;;;;;5068751;28;19928;-67
2023/12/05 10:18:24;;;;;;;;;;;;;;;;;;5075521;28;19969;-67
2023/12/05 10:20:50;;;;;;;;;;;;;;;;;;5071590;28;19924;-68
2023/12/05 10:23:16;;;;;;;;;;;;;;;;;;5076762;28;20323;-67
2023/12/05 10:25:41;;;;;;;;;;;;;;;;;;5095306;28;19928;-67
2023/12/05 10:28:08;;;;;;;;;;;;;;;;;;5071092;28;19965;-67
2023/12/05 10:30:34;;;;;;;;;;;;;;;;;;5091290;28;19924;-67
2023/12/05 10:33:00;;;;;;;;;;;;;;;;;;5070297;28;20323;-67
2023/12/05 10:35:26;;;;;;;;;;;;;;;;;;5063029;28;19928;-67
2023/12/05 10:37:52;;;;;;;;;;;;;;;;;;5063827;28;19924;-67
2023/12/05 10:40:19;;;;;;;;;;;;;;;;;;5064174;28;19924;-68
2023/12/05 10:42:45;;;;;;;;;;;;;;;;;;5070680;28;19928;-67
2023/12/05 10:45:12;;;;;;;;;;;;;;;;;;5059387;28;19928;-67
2023/12/05 10:47:37;;;;;;;;;;;;;;;;;;5094423;28;19920;-67
2023/12/05 10:50:03;;;;;;;;;;;;;;;;;;5090706;28;20439;-67
2023/12/05 10:52:31;;;;;;;;;;;;;;;;;;5081083;28;19920;-67
2023/12/05 10:54:57;;;;;;;;;;;;;;;;;;5076281;28;19923;-67
2023/12/05 10:57:23;;;;;;;;;;;;;;;;;;5063231;28;19931;-64
2023/12/05 10:59:49;;;;;;;;;;;;;;;;;;5072891;28;19925;-65
2023/12/05 11:02:15;;;;;;;;;;;;;;;;;;5094098;28;20353;-66
2023/12/05 11:04:44;;;;;;;;;;;;;;;;;;5074738;28;19924;-66
2023/12/05 11:07:10;;;;;;;;;;;;;;;;;;5066610;28;20402;-66
2023/12/05 11:09:36;;;;;;;;;;;;;;;;;;5055477;28;19924;-66
2023/12/05 11:12:01;;;;;;;;;;;;;;;;;;5063852;28;19943;-66
2023/12/05 11:14:27;;;;;;;;;;;;;;;;;;5060295;28;19957;-66
2023/12/05 11:16:53;;;;;;;;;;;;;;;;;;5067640;28;19924;-65
2023/12/05 11:19:19;;;;;;;;;;;;;;;;;;5071107;28;20275;-66
2023/12/05 11:21:46;;;;;;;;;;;;;;;;;;5057252;28;19938;-66
2023/12/05 11:24:12;;;;;;;;;;;;;;;;;;5072954;28;19920;-66
2023/12/05 11:26:38;;;;;;;;;;;;;;;;;;5073661;28;19928;-66
2023/12/05 11:29:04;;;;;;;;;;;;;;;;;;5096364;28;19977;-66
2023/12/05 11:31:30;;;;;;;;;;;;;;;;;;5095514;28;20331;-66
2023/12/05 11:33:56;;;;;;;;;;;;;;;;;;5075762;28;19931;-66
2023/12/05 11:36:24;;;;;;;;;;;;;;;;;;5058661;28;19967;-66
2023/12/05 11:38:49;;;;;;;;;;;;;;;;;;5045751;28;19924;-66
2023/12/05 11:41:17;;;;;;;;;;;;;;;;;;5056192;28;20021;-66
2023/12/05 11:43:43;;;;;;;;;;;;;;;;;;5072814;28;19928;-66
2023/12/05 11:46:09;;;;;;;;;;;;;;;;;;5097272;28;20030;-66
2023/12/05 11:48:35;;;;;;;;;;;;;;;;;;5074276;28;19985;-66
2023/12/05 11:51:04;;;;;;;;;;;;;;;;;;5074360;28;19931;-66
2023/12/05 11:53:30;;;;;;;;;;;;;;;;;;5095394;28;20007;-66
2023/12/05 11:55:56;;;;;;;;;;;;;;;;;;5067124;28;20380;-66
2023/12/05 11:58:22;;;;;;;;;;;;;;;;;;5065769;28;20003;-66
2023/12/05 12:00:47;;;;;;;;;;;;;;;;;;5095165;28;20281;-66
2023/12/05 12:03:13;;;;;;;;;;;;;;;;;;5083727;28;19935;-66
2023/12/05 12:05:39;;;;;;;;;;;;;;;;;;5066359;28;19927;-66
2023/12/05 12:08:05;;;;;;;;;;;;;;;;;;5054777;28;19920;-66
2023/12/05 12:10:32;;;;;;;;;;;;;;;;;;5092020;28;19928;-66
2023/12/05 12:12:58;;;;;;;;;;;;;;;;;;5070871;28;20028;-66
2023/12/05 12:15:24;;;;;;;;;;;;;;;;;;5104879;28;19927;-66
2023/12/05 12:17:50;;;;;;;;;;;;;;;;;;5077757;28;19923;-66
2023/12/05 12:20:16;;;;;;;;;;;;;;;;;;5071541;28;20003;-66
2023/12/05 12:22:45;;;;;;;;;;;;;;;;;;5071524;28;19924;-66
2023/12/05 12:25:11;;;;;;;;;;;;;;;;;;5057431;28;20550;-66
2023/12/05 12:27:38;;;;;;;;;;;;;;;;;;5091635;28;19928;-66
2023/12/05 12:30:05;;;;;;;;;;;;;;;;;;5073771;28;19926;-66
2023/12/05 12:32:31;;;;;;;;;;;;;;;;;;5090061;28;20393;-66
2023/12/05 12:34:57;;;;;;;;;;;;;;;;;;5068427;28;20012;-66
2023/12/05 12:37:23;;;;;;;;;;;;;;;;;;5065994;28;19928;-66
2023/12/05 12:39:50;;;;;;;;;;;;;;;;;;5070732;28;20415;-66
2023/12/05 12:42:16;;;;;;;;;;;;;;;;;;5071271;28;19924;-66
2023/12/05 12:44:42;;;;;;;;;;;;;;;;;;5097888;28;19974;-66
2023/12/05 12:47:08;;;;;;;;;;;;;;;;;;5091724;28;19927;-72
2023/12/05 12:49:34;;;;;;;;;;;;;;;;;;5092190;28;19920;-73
2023/12/05 12:52:00;;;;;;;;;;;;;;;;;;5087803;28;19928;-72
2023/12/05 12:54:26;;;;;;;;;;;;;;;;;;5078085;28;19920;-69
2023/12/05 12:56:54;;;;;;;;;;;;;;;;;;5090343;28;19976;-69
2023/12/05 12:59:20;;;;;;;;;;;;;;;;;;5095485;28;20310;-69
2023/12/05 13:01:46;;;;;;;;;;;;;;;;;;5073225;28;19972;-69
2023/12/05 13:04:12;;;;;;;;;;;;;;;;;;5099760;28;19920;-69
2023/12/05 13:06:37;;;;;;;;;;;;;;;;;;5089536;28;19931;-69
2023/12/05 13:09:04;;;;;;;;;;;;;;;;;;5076166;28;19924;-69
2023/12/05 13:11:30;;;;;;;;;;;;;;;;;;5074254;28;19920;-69
2023/12/05 13:13:56;;;;;;;;;;;;;;;;;;5082996;28;19947;-69
2023/12/05 13:16:22;;;;;;;;;;;;;;;;;;5095388;28;20010;-69
2023/12/05 13:18:47;;;;;;;;;;;;;;;;;;5074203;28;19927;-69
2023/12/05 13:21:13;;;;;;;;;;;;;;;;;;5084721;28;20023;-69
2023/12/05 13:23:39;;;;;;;;;;;;;;;;;;5094439;28;20364;-69
2023/12/05 13:26:05;;;;;;;;;;;;;;;;;;5083020;28;19924;-69
2023/12/05 13:28:31;;;;;;;;;;;;;;;;;;5077730;28;19920;-69
2023/12/05 13:30:57;;;;;;;;;;;;;;;;;;5094967;28;19927;-69
2023/12/05 13:33:24;;;;;;;;;;;;;;;;;;5068805;28;20026;-69
2023/12/05 13:35:50;;;;;;;;;;;;;;;;;;5071820;28;20627;-69
2023/12/05 13:38:16;;;;;;;;;;;;;;;;;;5081089;28;19920;-69
2023/12/05 13:40:42;;;;;;;;;;;;;;;;;;5043307;28;20336;-69
2023/12/05 13:43:08;;;;;;;;;;;;;;;;;;5075984;28;19919;-69
2023/12/05 13:45:33;;;;;;;;;;;;;;;;;;5041854;28;19931;-69
2023/12/05 13:47:59;;;;;;;;;;;;;;;;;;5052009;28;19928;-69
2023/12/05 13:50:25;;;;;;;;;;;;;;;;;;5068025;28;19925;-69
2023/12/05 13:52:51;;;;;;;;;;;;;;;;;;5071422;28;20405;-69
2023/12/05 13:55:17;;;;;;;;;;;;;;;;;;5066014;28;19924;-69
2023/12/05 13:57:43;;;;;;;;;;;;;;;;;;5069617;28;20404;-69
2023/12/05 14:00:10;;;;;;;;;;;;;;;;;;5073012;28;19929;-69
2023/12/05 14:02:36;;;;;;;;;;;;;;;;;;5068828;28;19924;-69
2023/12/05 14:05:02;;;;;;;;;;;;;;;;;;5063378;28;19935;-69
2023/12/05 14:07:28;;;;;;;;;;;;;;;;;;5071126;28;20002;-69
2023/12/05 14:09:54;;;;;;;;;;;;;;;;;;5073730;28;19920;-69
2023/12/05 14:12:20;;;;;;;;;;;;;;;;;;5059100;28;20047;-69
2023/12/05 14:14:46;;;;;;;;;;;;;;;;;;5053854;28;19931;-69
2023/12/05 14:17:14;;;;;;;;;;;;;;;;;;5059486;28;19921;-69
2023/12/05 14:19:40;;;;;;;;;;;;;;;;;;5057219;28;19931;-69
2023/12/05 14:22:06;;;;;;;;;;;;;;;;;;5060031;28;19921;-69
2023/12/05 14:24:31;;;;;;;;;;;;;;;;;;5067044;28;19921;-69
2023/12/05 14:26:57;;;;;;;;;;;;;;;;;;5044366;28;19947;-69
2023/12/05 14:29:23;;;;;;;;;;;;;;;;;;5042724;28;19975;-69
2023/12/05 14:31:49;;;;;;;;;;;;;;;;;;5067138;28;19960;-69
2023/12/05 14:34:15;;;;;;;;;;;;;;;;;;5068267;28;20404;-69
2023/12/05 14:36:41;;;;;;;;;;;;;;;;;;5069252;28;20020;-69
2023/12/05 14:39:08;;;;;;;;;;;;;;;;;;5069004;28;20011;-69
2023/12/05 14:41:33;;;;;;;;;;;;;;;;;;5069769;28;19929;-69
2023/12/05 14:43:59;;;;;;;;;;;;;;;;;;5070282;28;19924;-69
2023/12/05 14:46:25;;;;;;;;;;;;;;;;;;5069345;28;19932;-69
2023/12/05 14:48:51;;;;;;;;;;;;;;;;;;5070660;28;19967;-69
2023/12/05 14:51:17;;;;;;;;;;;;;;;;;;5064015;28;19921;-69
2023/12/05 14:53:43;;;;;;;;;;;;;;;;;;5069253;28;19934;-66
2023/12/05 14:56:09;;;;;;;;;;;;;;;;;;5089654;28;19923;-65
2023/12/05 14:58:35;;;;;;;;;;;;;;;;;;5098824;28;19920;-66
2023/12/05 15:01:02;;;;;;;;;;;;;;;;;;5078212;28;19928;-65
2023/12/05 15:03:27;;;;;;;;;;;;;;;;;;5091609;28;19924;-65
2023/12/05 15:05:53;;;;;;;;;;;;;;;;;;5082511;28;19930;-66
2023/12/05 15:08:19;;;;;;;;;;;;;;;;;;5069629;28;19920;-66
2023/12/05 15:10:45;;;;;;;;;;;;;;;;;;5061174;28;20292;-66
2023/12/05 15:13:11;;;;;;;;;;;;;;;;;;5089101;28;20012;-66
2023/12/05 15:15:37;;;;;;;;;;;;;;;;;;5083919;28;19928;-66
2023/12/05 15:18:03;;;;;;;;;;;;;;;;;;5098315;28;19924;-67
2023/12/05 15:20:29;;;;;;;;;;;;;;;;;;5093184;28;20452;-67
2023/12/05 15:22:55;;;;;;;;;;;;;;;;;;5097824;28;19931;-67
2023/12/05 15:25:21;;;;;;;;;;;;;;;;;;5078338;28;20332;-67
2023/12/05 15:27:47;;;;;;;;;;;;;;;;;;5086363;28;20318;-67
2023/12/05 15:30:12;;;;;;;;;;;;;;;;;;5093215;28;20195;-66
2023/12/05 15:32:39;;;;;;;;;;;;;;;;;;5075334;28;19931;-67
2023/12/05 15:35:05;;;;;;;;;;;;;;;;;;5099561;28;19927;-67
2023/12/05 15:37:31;;;;;;;;;;;;;;;;;;5101836;28;19924;-66
2023/12/05 15:39:57;;;;;;;;;;;;;;;;;;5097779;28;19927;-66
2023/12/05 15:42:23;;;;;;;;;;;;;;;;;;5079082;28;19975;-67
2023/12/05 15:44:49;;;;;;;;;;;;;;;;;;5062085;28;19951;-66
2023/12/05 15:47:14;;;;;;;;;;;;;;;;;;5091690;28;20097;-66
2023/12/05 15:49:40;;;;;;;;;;;;;;;;;;5098396;28;20027;-67
2023/12/05 15:52:06;;;;;;;;;;;;;;;;;;5098732;28;20006;-67
2023/12/05 15:54:36;;;;;;;;;;;;;;;;;;5094272;28;20057;-67
2023/12/05 15:57:02;;;;;;;;;;;;;;;;;;5089810;28;20407;-67
2023/12/05 15:59:27;;;;;;;;;;;;;;;;;;5096034;28;19923;-67
2023/12/05 16:01:53;;;;;;;;;;;;;;;;;;5093715;28;19927;-67
2023/12/05 16:04:19;;;;;;;;;;;;;;;;;;5089369;28;19928;-67
2023/12/05 16:06:45;;;;;;;;;;;;;;;;;;5087259;28;19924;-67
2023/12/05 16:09:20;;;;;;;;;;;;;;;;;;5106885;27;19924;-67
2023/12/05 16:11:46;;;;;;;;;;;;;;;;;;5060839;28;20086;-67
2023/12/05 16:14:11;;;;;;;;;;;;;;;;;;5078230;28;20359;-67
2023/12/05 16:16:37;;;;;;;;;;;;;;;;;;5088555;28;19924;-67
2023/12/05 16:19:03;;;;;;;;;;;;;;;;;;5097690;28;19927;-67
2023/12/05 16:21:29;;;;;;;;;;;;;;;;;;5090513;28;20010;-67
2023/12/05 16:23:55;;;;;;;;;;;;;;;;;;5088902;28;20269;-67
2023/12/05 16:26:21;;;;;;;;;;;;;;;;;;5101577;28;19924;-67
2023/12/05 16:28:47;;;;;;;;;;;;;;;;;;5093139;28;20061;-67
2023/12/05 16:31:13;;;;;;;;;;;;;;;;;;5089966;28;19924;-67
2023/12/05 16:33:39;;;;;;;;;;;;;;;;;;5096531;28;19920;-67
2023/12/05 16:36:05;;;;;;;;;;;;;;;;;;5087272;28;19924;-67